Time;durP1;ratioP1;P1;durP2;ratioP2;P2;SDS_P1;SDS_P2;PMS_P1;PMS_P2;Temp;Humidity;BMP_temperature;BMP_pressure;BME280_temperature;BME280_humidity;BME280_pressure;Samples;Min_cycle;Max_cycle;Signal;HPM_P1;HPM_P2
2021/05/26 00:02:26;;;;;;;1.65;1.10;;;;;;;7.52;79.17;96928.13;127567;1101;22777;-78
2021/05/26 00:04:56;;;;;;;4.83;1.45;;;;;;;7.48;79.39;96929.67;127516;1101;22781;-77
2021/05/26 00:07:26;;;;;;;1.93;1.60;;;;;;;7.44;79.68;96926.72;127520;1101;22787;-78
2021/05/26 00:09:56;;;;;;;4.13;1.70;;;;;;;7.43;79.26;96926.98;127531;1101;23678;-77
2021/05/26 00:12:26;;;;;;;2.90;1.48;;;;;;;7.43;79.67;96929.61;127505;1101;22890;-77
2021/05/26 00:14:56;;;;;;;3.38;2.08;;;;;;;7.39;79.28;96934.59;127552;1101;23436;-77
2021/05/26 00:17:25;;;;;;;2.38;1.68;;;;;;;7.39;79.45;96939.08;127535;1101;23229;-77
2021/05/26 00:19:55;;;;;;;2.20;1.40;;;;;;;7.38;79.25;96937.48;127544;1101;22742;-78
2021/05/26 00:22:25;;;;;;;3.20;1.80;;;;;;;7.37;79.21;96941.17;127571;1101;22923;-78
2021/05/26 00:24:55;;;;;;;3.43;1.80;;;;;;;7.31;79.13;96936.88;127526;1101;23430;-77
2021/05/26 00:27:25;;;;;;;3.38;1.58;;;;;;;7.23;79.66;96935.50;127568;1101;24396;-78
2021/05/26 00:29:55;;;;;;;3.55;2.00;;;;;;;7.15;79.71;96949.91;127522;1101;35103;-77
2021/05/26 00:32:25;;;;;;;3.50;1.70;;;;;;;7.08;79.67;96957.22;127534;1101;22784;-77
2021/05/26 00:34:55;;;;;;;4.40;1.75;;;;;;;6.96;79.75;96967.09;127563;1101;22818;-78
2021/05/26 00:37:24;;;;;;;3.18;1.63;;;;;;;6.87;79.76;96968.56;127553;1101;22760;-77
2021/05/26 00:39:54;;;;;;;4.20;1.50;;;;;;;6.81;79.76;96977.46;127551;1096;26232;-77
2021/05/26 00:42:26;;;;;;;3.23;1.70;;;;;;;6.73;79.72;96962.86;127548;1101;23256;-78
2021/05/26 00:44:56;;;;;;;3.13;1.30;;;;;;;6.69;79.99;96972.30;127558;1096;26254;-78
2021/05/26 00:47:44;;;;;;;3.90;1.40;;;;;;;6.73;80.00;96976.03;127580;1101;23960;-77
2021/05/26 00:50:17;;;;;;;2.03;1.50;;;;;;;6.75;79.95;96976.58;127610;1101;22777;-77
2021/05/26 00:52:47;;;;;;;2.48;1.40;;;;;;;6.73;80.03;96981.30;127540;1101;22770;-77
2021/05/26 00:55:19;;;;;;;2.75;1.40;;;;;;;6.68;79.92;96980.45;127554;1101;22772;-78
2021/05/26 00:57:51;;;;;;;1.73;1.03;;;;;;;6.51;79.64;96980.50;127557;1101;22756;-77
2021/05/26 01:00:23;;;;;;;4.65;1.48;;;;;;;6.49;79.94;96967.58;127561;1101;22791;-78
2021/05/26 01:02:53;;;;;;;2.90;1.60;;;;;;;6.48;80.08;96981.78;127544;1101;22909;-78
2021/05/26 01:05:26;;;;;;;4.90;1.40;;;;;;;6.48;80.20;96981.78;127550;1101;22919;-77
2021/05/26 01:07:56;;;;;;;3.90;1.40;;;;;;;6.59;80.04;96981.90;127570;1101;22815;-78
2021/05/26 01:10:28;;;;;;;6.05;1.68;;;;;;;6.63;80.02;96977.77;127554;1101;22888;-78
2021/05/26 01:12:58;;;;;;;3.18;1.70;;;;;;;6.51;80.09;96985.77;127473;1101;102220;-79
2021/05/26 01:15:28;;;;;;;2.68;1.38;;;;;;;6.42;79.98;96992.47;127645;1101;22882;-78
2021/05/26 01:18:17;;;;;;;1.98;1.13;;;;;;;6.29;79.85;96993.60;127642;1101;22815;-77
2021/05/26 01:20:47;;;;;;;2.48;1.40;;;;;;;6.24;80.25;96998.80;127622;1101;22877;-77
2021/05/26 01:23:17;;;;;;;3.95;1.50;;;;;;;6.21;80.17;97005.35;127635;1101;22861;-76
2021/05/26 01:25:49;;;;;;;2.78;1.70;;;;;;;6.25;80.25;96997.77;127651;1101;22776;-76
2021/05/26 01:28:20;;;;;;;3.00;1.20;;;;;;;6.21;80.35;97004.55;127667;1101;22894;-76
2021/05/26 01:30:51;;;;;;;2.30;1.40;;;;;;;6.13;80.18;97003.11;127648;1101;22757;-76
2021/05/26 01:33:21;;;;;;;3.23;1.53;;;;;;;6.01;80.85;97005.02;127668;1096;22757;-76
2021/05/26 01:35:51;;;;;;;1.78;1.25;;;;;;;5.86;80.91;97000.27;127582;1097;27068;-77
2021/05/26 01:38:23;;;;;;;2.33;1.23;;;;;;;5.88;81.02;97000.03;127562;1101;22782;-77
2021/05/26 01:40:58;;;;;;;3.75;1.55;;;;;;;5.88;80.97;96997.41;127569;1101;22783;-78
2021/05/26 01:43:29;;;;;;;2.40;1.20;;;;;;;5.84;80.59;96988.41;127560;1101;24869;-78
2021/05/26 01:46:01;;;;;;;3.80;1.50;;;;;;;5.68;80.66;96992.61;127562;1101;22931;-78
2021/05/26 01:48:32;;;;;;;2.23;1.28;;;;;;;5.57;80.38;96991.63;127558;1101;22756;-78
2021/05/26 01:51:01;;;;;;;;;;;;;;;5.49;80.70;97002.55;127588;1101;22819;-78
2021/05/26 01:53:32;;;;;;;3.18;1.35;;;;;;;5.52;81.16;96998.64;127514;1101;25542;-78
2021/05/26 01:56:02;;;;;;;2.63;1.33;;;;;;;5.55;81.81;97003.42;127551;1101;22906;-77
2021/05/26 01:58:32;;;;;;;2.95;1.38;;;;;;;5.62;81.71;97004.06;127555;1101;22777;-78
2021/05/26 02:01:02;;;;;;;2.43;1.35;;;;;;;5.68;82.08;97008.39;127570;1096;22750;-78
2021/05/26 02:03:31;;;;;;;4.05;1.70;;;;;;;5.70;82.00;97008.95;127571;1096;24583;-77
2021/05/26 02:06:01;;;;;;;1.23;0.90;;;;;;;5.66;82.02;97020.98;127596;1101;22823;-77
2021/05/26 02:08:31;;;;;;;1.83;0.75;;;;;;;5.58;82.37;97016.89;127732;1094;24393;-79
2021/05/26 02:13:49;;;;;;;2.63;1.70;;;;;;;5.52;82.06;97009.96;127571;1101;22787;-78
2021/05/26 02:16:19;;;;;;;2.28;1.50;;;;;;;5.54;82.04;97007.09;127552;1095;26217;-77
2021/05/26 02:18:49;;;;;;;2.35;1.10;;;;;;;5.50;82.17;97006.77;127555;1101;23728;-77
2021/05/26 02:21:19;;;;;;;1.63;1.20;;;;;;;5.57;82.53;97009.25;127603;1101;22774;-79
2021/05/26 02:23:49;;;;;;;2.85;1.10;;;;;;;5.73;82.75;96995.31;127577;1101;22746;-77
2021/05/26 02:26:19;;;;;;;3.00;1.17;;;;;;;5.86;82.72;96994.22;127542;1101;23324;-77
2021/05/26 02:28:50;;;;;;;2.85;1.25;;;;;;;6.00;82.32;96984.20;127568;1101;22816;-78
2021/05/26 02:31:20;;;;;;;1.80;1.20;;;;;;;6.13;82.06;96973.36;127582;1101;26114;-78
2021/05/26 02:33:49;;;;;;;3.73;1.10;;;;;;;6.21;81.80;96971.13;127576;1101;24437;-78
2021/05/26 02:36:19;;;;;;;3.40;1.20;;;;;;;6.31;81.50;96967.03;127572;1096;23687;-78
2021/05/26 02:38:49;;;;;;;2.35;1.13;;;;;;;6.35;81.11;96973.42;127554;1101;22777;-78
2021/05/26 02:41:19;;;;;;;2.53;0.85;;;;;;;6.38;80.92;96976.37;127551;1101;22801;-77
2021/05/26 02:43:49;;;;;;;2.23;1.10;;;;;;;6.39;80.98;96983.22;127574;1101;22757;-78
2021/05/26 02:46:19;;;;;;;2.23;0.50;;;;;;;6.44;80.79;96985.13;127538;1101;24774;-77
2021/05/26 02:48:53;;;;;;;1.50;0.70;;;;;;;6.43;80.79;96994.86;127500;1101;22757;-78
2021/05/26 02:51:23;;;;;;;2.88;1.00;;;;;;;6.41;80.67;96988.25;127524;1101;22784;-77
2021/05/26 02:53:52;;;;;;;2.93;1.20;;;;;;;6.43;81.26;96986.16;127531;1101;23426;-78
2021/05/26 02:56:22;;;;;;;1.87;1.23;;;;;;;6.40;81.59;97005.88;127545;1097;26219;-77
2021/05/26 02:58:52;;;;;;;3.83;1.10;;;;;;;6.37;81.52;97006.38;127566;1101;22760;-78
2021/05/26 03:01:22;;;;;;;2.13;1.13;;;;;;;6.36;82.42;97015.31;127560;1100;24540;-78
2021/05/26 03:03:52;;;;;;;2.23;1.43;;;;;;;6.35;81.98;97015.56;127592;1100;22916;-79
2021/05/26 03:06:22;;;;;;;4.40;1.40;;;;;;;6.34;81.97;97017.39;127536;1101;22750;-78
2021/05/26 03:08:51;;;;;;;2.63;1.40;;;;;;;6.37;81.97;97024.81;127553;1096;26222;-78
2021/05/26 03:11:21;;;;;;;1.33;0.90;;;;;;;6.43;81.72;97030.94;127543;1101;23385;-78
2021/05/26 03:13:51;;;;;;;2.55;1.40;;;;;;;6.42;81.97;97021.44;127566;1101;22900;-77
2021/05/26 03:16:21;;;;;;;2.83;1.30;;;;;;;6.40;81.72;97021.69;127559;1096;37186;-77
2021/05/26 03:18:51;;;;;;;2.60;1.30;;;;;;;6.41;81.87;97018.01;127541;1101;22764;-78
2021/05/26 03:21:21;;;;;;;3.38;1.30;;;;;;;6.45;81.59;97024.38;127551;1101;22806;-78
2021/05/26 03:23:52;;;;;;;3.63;1.23;;;;;;;6.48;81.60;97018.66;127599;1101;22745;-77
2021/05/26 03:26:22;;;;;;;2.10;1.00;;;;;;;6.55;81.13;97018.47;127551;1101;22749;-79
2021/05/26 03:28:51;;;;;;;1.83;0.83;;;;;;;6.58;81.29;97017.19;127573;1096;22781;-77
2021/05/26 03:31:21;;;;;;;2.30;1.25;;;;;;;6.64;80.42;97024.14;127514;1101;22750;-77
2021/05/26 03:33:52;;;;;;;1.30;1.00;;;;;;;6.71;80.75;97030.02;127549;1101;23673;-77
2021/05/26 03:36:22;;;;;;;1.98;1.08;;;;;;;6.80;80.25;97026.73;127525;1101;23325;-78
2021/05/26 03:38:52;;;;;;;1.68;0.78;;;;;;;6.82;80.26;97029.12;127513;1101;26005;-77
2021/05/26 03:41:21;;;;;;;4.17;1.10;;;;;;;6.87;80.07;97034.45;127528;1101;24853;-77
2021/05/26 03:43:51;;;;;;;2.85;0.93;;;;;;;6.92;79.76;97020.56;127542;1101;23659;-77
2021/05/26 03:46:21;;;;;;;4.20;1.23;;;;;;;6.94;79.98;97021.90;127556;1101;23146;-78
2021/05/26 03:48:51;;;;;;;2.03;1.10;;;;;;;7.00;80.03;97030.66;127534;1101;24782;-77
2021/05/26 03:51:21;;;;;;;2.33;0.90;;;;;;;7.02;79.84;97025.94;127528;1101;28429;-77
2021/05/26 03:53:51;;;;;;;1.88;0.83;;;;;;;7.05;79.75;97034.17;127565;1095;24392;-77
2021/05/26 03:56:22;;;;;;;3.20;1.25;;;;;;;7.09;79.62;97031.84;127543;1101;22749;-78
2021/05/26 03:58:52;;;;;;;2.23;0.88;;;;;;;7.15;78.83;97034.28;127520;1101;22815;-77
2021/05/26 04:01:22;;;;;;;3.33;0.90;;;;;;;7.20;78.88;97040.67;127534;1101;22774;-78
2021/05/26 04:03:52;;;;;;;2.75;0.85;;;;;;;7.28;79.02;97029.67;127516;1101;22793;-78
2021/05/26 04:06:22;;;;;;;1.70;0.90;;;;;;;7.35;78.58;97036.38;127564;1101;22763;-79
2021/05/26 04:08:52;;;;;;;1.70;0.98;;;;;;;7.42;78.36;97044.08;127549;1101;22983;-76
2021/05/26 04:11:24;;;;;;;3.20;1.13;;;;;;;7.51;78.37;97039.97;127572;1101;22858;-77
2021/05/26 04:13:54;;;;;;;2.00;0.80;;;;;;;7.57;78.30;97035.53;127734;1101;22761;-77
2021/05/26 04:16:24;;;;;;;3.23;1.00;;;;;;;7.62;78.25;97033.77;127523;1101;27842;-77
2021/05/26 04:18:53;;;;;;;2.25;0.70;;;;;;;7.69;77.74;97044.91;127537;1101;22760;-77
2021/05/26 04:21:23;;;;;;;3.20;0.90;;;;;;;7.76;77.43;97047.36;127586;1101;22764;-77
2021/05/26 04:23:55;;;;;;;2.40;0.90;;;;;;;7.85;77.48;97042.41;127554;1101;22774;-77
2021/05/26 04:26:25;;;;;;;2.23;0.93;;;;;;;7.98;76.92;97048.08;127553;1097;25260;-77
2021/05/26 04:28:55;;;;;;;2.70;0.90;;;;;;;8.10;75.93;97052.41;127510;1101;23451;-77
2021/05/26 04:31:25;;;;;;;2.15;0.85;;;;;;;8.19;76.09;97040.35;127505;1101;22828;-77
2021/05/26 04:33:54;;;;;;;3.80;1.20;;;;;;;8.24;75.43;97051.74;127530;1096;27363;-77
2021/05/26 04:36:24;;;;;;;2.28;0.70;;;;;;;8.35;75.26;97052.66;127521;1101;23204;-77
2021/05/26 04:38:54;;;;;;;1.67;1.03;;;;;;;8.47;74.78;97044.56;127524;1101;22760;-77
2021/05/26 04:41:24;;;;;;;1.57;0.97;;;;;;;8.57;74.11;97036.67;127569;1101;22793;-77
2021/05/26 04:43:54;;;;;;;2.70;1.20;;;;;;;8.65;73.96;97036.22;127532;1101;22748;-77
2021/05/26 04:46:24;;;;;;;2.40;0.73;;;;;;;8.76;73.95;97043.16;127538;1101;25512;-78
2021/05/26 04:48:53;;;;;;;2.13;1.00;;;;;;;8.88;73.92;97041.12;127584;1101;22790;-78
2021/05/26 04:51:23;;;;;;;1.23;0.73;;;;;;;8.99;73.35;97046.44;127576;1101;22763;-78
2021/05/26 04:53:53;;;;;;;1.77;0.97;;;;;;;9.08;73.03;97042.27;127677;1101;24580;-78
2021/05/26 04:56:23;;;;;;;2.15;1.15;;;;;;;9.28;73.33;97049.48;127618;1096;27859;-78
2021/05/26 04:58:54;;;;;;;1.58;0.90;;;;;;;9.51;71.77;97047.19;127696;1101;22794;-76
2021/05/26 05:01:22;;;;;;;;;;;;;;;9.84;71.29;97055.73;127529;1101;22886;-78
2021/05/26 05:03:52;;;;;;;1.43;0.70;;;;;;;10.37;70.63;97056.35;127506;1101;21614;-77
2021/05/26 05:06:21;;;;;;;;;;;;;;;11.46;67.90;97046.03;125493;1096;2367111;-79
2021/05/26 05:08:51;;;;;;;2.90;1.13;;;;;;;13.06;65.76;97046.94;127515;1096;118692;-79
2021/05/26 05:11:21;;;;;;;1.63;0.77;;;;;;;14.37;62.44;97052.70;127561;1101;22788;-78
2021/05/26 05:13:51;;;;;;;1.20;0.90;;;;;;;15.48;59.08;97044.54;127666;1096;22752;-78
2021/05/26 05:16:21;;;;;;;2.07;0.60;;;;;;;16.48;56.62;97047.96;127648;1101;22782;-78
2021/05/26 05:18:51;;;;;;;10.03;1.05;;;;;;;17.28;54.37;97040.02;127468;1101;22756;-78
2021/05/26 05:21:21;;;;;;;2.35;0.80;;;;;;;17.66;50.91;97046.43;127480;1101;55093;-78
2021/05/26 05:23:51;;;;;;;1.93;0.73;;;;;;;18.18;52.18;97046.51;127558;1096;23326;-78
2021/05/26 05:26:21;;;;;;;1.68;0.58;;;;;;;18.60;49.05;97028.77;127609;1101;22763;-78
2021/05/26 05:28:51;;;;;;;1.38;0.75;;;;;;;18.96;46.99;97047.18;127628;1101;26915;-79
2021/05/26 05:31:21;;;;;;;2.73;0.80;;;;;;;19.26;47.51;97052.59;127561;1101;26517;-79
2021/05/26 05:33:51;;;;;;;1.15;0.65;;;;;;;19.74;47.16;97054.13;127621;1097;26213;-79
2021/05/26 05:36:21;;;;;;;2.38;0.70;;;;;;;19.67;42.94;97043.08;127609;1101;22758;-80
2021/05/26 05:38:51;;;;;;;1.03;0.85;;;;;;;19.73;44.00;97047.17;127623;1101;22822;-77
2021/05/26 05:41:21;;;;;;;1.00;0.78;;;;;;;19.98;45.10;97051.57;127618;1101;22763;-77
2021/05/26 05:43:51;;;;;;;2.23;0.90;;;;;;;20.05;44.68;97049.16;127471;1101;22796;-77
2021/05/26 05:46:21;;;;;;;1.48;0.75;;;;;;;20.84;42.95;97051.97;127588;1101;24391;-77
2021/05/26 05:48:52;;;;;;;3.15;0.80;;;;;;;21.17;42.20;97049.98;127634;1101;22874;-77
2021/05/26 05:51:22;;;;;;;2.38;0.85;;;;;;;21.49;41.05;97040.24;127591;1101;22876;-77
2021/05/26 05:53:52;;;;;;;3.20;0.60;;;;;;;21.93;40.14;97041.19;127607;1101;22803;-76
2021/05/26 05:56:22;;;;;;;3.00;0.80;;;;;;;22.19;39.05;97042.73;127633;1101;24368;-76
2021/05/26 05:58:52;;;;;;;3.13;0.95;;;;;;;22.41;40.18;97044.13;127550;1101;23343;-77
2021/05/26 06:01:22;;;;;;;3.63;1.00;;;;;;;22.67;37.77;97043.67;127614;1101;24780;-77
2021/05/26 06:03:52;;;;;;;4.93;1.08;;;;;;;23.16;37.58;97046.09;127634;1101;22787;-77
2021/05/26 06:06:22;;;;;;;1.70;0.63;;;;;;;22.97;36.53;97050.28;127536;1101;33045;-77
2021/05/26 06:08:51;;;;;;;2.63;0.80;;;;;;;23.03;38.62;97040.77;127573;1101;23271;-79
2021/05/26 06:11:21;;;;;;;2.40;0.70;;;;;;;23.32;38.79;97033.35;127525;1101;23204;-78
2021/05/26 06:13:51;;;;;;;1.28;0.83;;;;;;;23.57;38.46;97029.34;127565;1097;24813;-78
2021/05/26 06:16:22;;;;;;;1.80;1.03;;;;;;;24.19;35.63;97013.23;125721;1101;2479172;-79
2021/05/26 06:18:52;;;;;;;1.53;0.90;;;;;;;22.84;31.43;97032.56;128144;1101;23187;-79
2021/05/26 06:21:21;;;;;;;2.10;0.80;;;;;;;22.09;33.64;97032.41;127596;1101;22767;-79
2021/05/26 06:23:51;;;;;;;1.88;0.78;;;;;;;21.82;33.07;97018.52;127855;1100;131995;-80
2021/05/26 06:26:22;;;;;;;1.25;0.60;;;;;;;21.67;35.34;97021.89;127597;1101;30659;-77
2021/05/26 06:28:52;;;;;;;4.38;0.60;;;;;;;21.83;35.45;97028.19;127415;1101;31198;-77
2021/05/26 06:31:22;;;;;;;0.90;0.50;;;;;;;22.57;34.94;97028.73;127539;1101;22823;-77
2021/05/26 06:33:52;;;;;;;0.90;0.63;;;;;;;22.40;33.41;97037.94;127564;1101;22823;-77
2021/05/26 06:36:22;;;;;;;2.00;0.90;;;;;;;21.89;34.34;97034.91;127542;1101;28000;-77
2021/05/26 06:38:52;;;;;;;1.90;0.70;;;;;;;22.19;35.40;97026.53;127537;1096;22729;-78
2021/05/26 06:41:22;;;;;;;0.98;0.58;;;;;;;22.60;33.04;97017.23;127596;1101;22825;-78
2021/05/26 06:43:52;;;;;;;1.88;0.65;;;;;;;22.46;33.75;97014.94;127579;1101;32604;-79
2021/05/26 06:46:22;;;;;;;2.03;0.80;;;;;;;23.10;36.06;97015.84;127459;1101;26646;-79
2021/05/26 06:48:52;;;;;;;4.03;1.30;;;;;;;23.06;32.86;97015.73;127424;1101;25819;-78
2021/05/26 06:51:22;;;;;;;2.48;0.75;;;;;;;23.34;35.00;97014.84;127483;1101;24939;-78
2021/05/26 06:53:52;;;;;;;3.68;0.83;;;;;;;23.35;31.34;97011.00;127457;1096;26229;-78
2021/05/26 06:56:23;;;;;;;2.83;0.68;;;;;;;22.48;30.62;97009.97;127434;1101;26485;-78
2021/05/26 06:58:52;;;;;;;;;;;;;;;21.88;32.46;97000.95;128151;1100;24596;-78
2021/05/26 07:01:22;;;;;;;1.23;0.47;;;;;;;21.99;32.25;97008.58;127768;1100;22525;-78
2021/05/26 07:03:51;;;;;;;;;;;;;;;22.32;33.02;97009.15;127655;1101;30217;-78
2021/05/26 07:06:20;;;;;;;1.83;0.50;;;;;;;23.06;34.21;97006.83;127614;1101;26642;-77
2021/05/26 07:08:50;;;;;;;2.35;0.48;;;;;;;24.00;29.80;97005.89;127608;1102;24358;-77
2021/05/26 07:11:20;;;;;;;5.53;1.20;;;;;;;23.21;30.79;97007.95;127533;1101;25388;-78
2021/05/26 07:13:50;;;;;;;3.15;0.80;;;;;;;23.17;32.67;97007.09;127628;1101;22917;-79
2021/05/26 07:16:20;;;;;;;1.18;0.70;;;;;;;23.31;28.92;97008.22;127569;1101;22930;-78
2021/05/26 07:18:50;;;;;;;2.00;0.55;;;;;;;23.38;30.14;97008.40;127555;1101;24302;-78
2021/05/26 07:21:20;;;;;;;4.05;0.70;;;;;;;23.52;32.09;97002.52;127602;1101;23558;-77
2021/05/26 07:23:51;;;;;;;3.55;0.68;;;;;;;23.67;29.83;96996.31;127704;1100;22920;-78
2021/05/26 07:26:31;;;;;;;2.55;0.78;;;;;;;23.91;32.15;96987.14;127587;1101;22834;-78
2021/05/26 07:29:01;;;;;;;1.78;0.70;;;;;;;24.01;30.73;96993.14;127564;1101;25874;-79
2021/05/26 07:31:32;;;;;;;1.68;0.33;;;;;;;24.36;30.89;96993.09;127562;1101;28264;-78
2021/05/26 07:34:02;;;;;;;4.50;0.75;;;;;;;23.94;30.18;96991.86;127526;1100;28035;-78
2021/05/26 07:36:32;;;;;;;2.30;0.55;;;;;;;23.30;30.87;97000.45;127507;1101;22784;-77
2021/05/26 07:39:03;;;;;;;1.18;0.60;;;;;;;23.23;29.73;96994.89;127517;1101;23135;-78
2021/05/26 07:41:33;;;;;;;1.40;0.70;;;;;;;22.90;30.82;96998.72;127601;1101;22898;-78
2021/05/26 07:44:04;;;;;;;4.33;1.10;;;;;;;22.63;30.69;97002.23;127586;1101;26141;-78
2021/05/26 07:46:35;;;;;;;2.50;0.60;;;;;;;22.89;31.75;97005.27;127564;1101;59026;-78
2021/05/26 07:49:05;;;;;;;2.75;0.78;;;;;;;22.65;29.77;96998.05;127593;1095;22810;-79
2021/05/26 07:51:36;;;;;;;2.80;1.00;;;;;;;21.80;30.19;96991.06;127545;1101;23105;-78
2021/05/26 07:54:06;;;;;;;2.85;0.80;;;;;;;21.35;32.36;96999.34;127605;1100;22753;-78
2021/05/26 07:56:37;;;;;;;2.90;0.43;;;;;;;21.16;31.53;96997.19;127807;1097;26236;-79
2021/05/26 07:59:07;;;;;;;1.80;0.80;;;;;;;21.25;30.72;96995.17;127661;1101;30661;-78
2021/05/26 08:01:37;;;;;;;2.93;0.63;;;;;;;21.10;31.83;97003.13;127591;1101;25059;-79
2021/05/26 08:04:07;;;;;;;2.85;0.48;;;;;;;20.75;31.56;97003.55;127597;1096;22773;-79
2021/05/26 08:06:37;;;;;;;1.70;0.55;;;;;;;20.11;31.64;97002.06;127590;1100;24568;-78
2021/05/26 08:09:07;;;;;;;2.25;0.60;;;;;;;19.55;33.12;96998.84;127615;1100;22758;-79
2021/05/26 08:11:38;;;;;;;1.68;0.70;;;;;;;19.08;34.66;97005.41;127636;1096;28346;-78
2021/05/26 08:14:07;;;;;;;2.33;0.80;;;;;;;19.22;35.71;96997.91;127654;1101;22777;-78
2021/05/26 08:16:38;;;;;;;1.85;0.65;;;;;;;19.24;34.39;97001.84;127629;1101;23685;-78
2021/05/26 08:19:08;;;;;;;0.88;0.65;;;;;;;19.77;35.04;96997.76;127608;1101;25014;-78
2021/05/26 08:21:39;;;;;;;3.48;0.70;;;;;;;20.53;35.19;96998.55;127627;1101;22908;-78
2021/05/26 08:24:12;;;;;;;1.35;0.58;;;;;;;21.15;34.13;96992.92;127615;1101;22751;-78
2021/05/26 08:26:53;;;;;;;2.03;0.67;;;;;;;21.54;32.88;96990.69;127685;1101;22784;-79
2021/05/26 08:29:23;;;;;;;3.53;0.70;;;;;;;21.30;32.94;96999.58;127621;1101;22784;-78
2021/05/26 08:31:57;;;;;;;4.45;0.80;;;;;;;20.90;32.46;96994.81;127579;1101;24015;-78
2021/05/26 08:34:28;;;;;;;2.33;0.58;;;;;;;20.99;32.42;96987.41;127562;1101;22756;-78
2021/05/26 08:36:57;;;;;;;;;;;;;;;20.83;33.23;96989.20;127590;1101;25861;-80
2021/05/26 08:39:27;;;;;;;2.53;0.70;;;;;;;21.11;34.98;96981.22;127585;1101;21468;-79
2021/05/26 08:41:57;;;;;;;2.30;0.70;;;;;;;21.95;34.01;96976.05;127525;1096;27115;-79
2021/05/26 08:44:27;;;;;;;1.23;0.78;;;;;;;22.19;31.65;96976.00;127608;1100;25812;-79
2021/05/26 08:46:58;;;;;;;2.33;0.68;;;;;;;21.41;31.69;96978.34;127675;1101;25975;-80
2021/05/26 08:49:28;;;;;;;;;;;;;;;21.07;30.95;96976.84;127626;1101;27881;-78
2021/05/26 08:52:02;;;;;;;3.18;0.95;;;;;;;22.09;31.52;96975.70;127879;1101;21471;-78
2021/05/26 08:54:32;;;;;;;2.40;0.78;;;;;;;22.70;30.77;96981.59;127622;1096;23394;-80
2021/05/26 08:57:02;;;;;;;2.63;0.83;;;;;;;23.05;30.40;96984.41;127561;1101;22780;-77
2021/05/26 08:59:32;;;;;;;5.13;0.95;;;;;;;22.78;29.43;96966.33;127574;1101;32687;-78
2021/05/26 09:02:02;;;;;;;2.50;0.70;;;;;;;22.28;30.93;96975.86;127582;1101;23636;-78
2021/05/26 09:04:34;;;;;;;1.58;0.60;;;;;;;22.87;30.78;96974.30;127606;1097;23164;-79
2021/05/26 09:07:15;;;;;;;2.65;1.08;;;;;;;22.28;31.16;96973.16;127550;1101;22926;-78
2021/05/26 09:09:54;;;;;;;2.18;0.80;;;;;;;21.05;31.72;96963.70;127578;1101;22867;-78
2021/05/26 09:12:33;;;;;;;1.17;0.50;;;;;;;20.38;30.32;96967.61;127666;1100;22777;-78
2021/05/26 09:15:07;;;;;;;1.80;0.50;;;;;;;19.95;32.13;96957.25;127545;1101;22764;-79
2021/05/26 09:17:38;;;;;;;1.43;0.65;;;;;;;19.82;30.95;96961.79;127679;1101;24355;-78
2021/05/26 09:20:23;;;;;;;1.00;0.63;;;;;;;18.87;32.68;96957.78;127607;1095;22789;-78
2021/05/26 09:23:05;;;;;;;2.70;0.50;;;;;;;18.36;35.41;96951.44;127981;1101;22757;-78
2021/05/26 09:25:37;;;;;;;1.10;0.60;;;;;;;17.75;34.26;96947.27;127625;1097;22763;-79
2021/05/26 09:28:32;;;;;;;4.08;0.93;;;;;;;18.32;35.53;96939.77;127572;1101;22775;-78
2021/05/26 09:31:05;;;;;;;3.13;0.70;;;;;;;19.88;34.08;96932.80;127578;1101;24506;-78
2021/05/26 09:33:41;;;;;;;1.78;0.55;;;;;;;20.71;34.21;96930.69;127572;1101;22757;-78
2021/05/26 09:36:14;;;;;;;2.03;0.70;;;;;;;22.17;31.72;96920.77;127643;1101;22757;-77
2021/05/26 09:38:46;;;;;;;2.03;0.70;;;;;;;22.16;30.42;96925.38;127592;1101;22789;-77
2021/05/26 09:41:19;;;;;;;3.20;0.78;;;;;;;23.40;28.90;96919.53;127519;1101;32898;-78
2021/05/26 09:43:51;;;;;;;3.80;0.80;;;;;;;24.55;29.72;96911.73;127624;1101;24663;-78
2021/05/26 09:46:27;;;;;;;1.95;0.78;;;;;;;24.20;25.88;96914.56;127677;1100;22754;-78
2021/05/26 09:49:09;;;;;;;1.00;0.50;;;;;;;22.76;27.45;96919.94;127575;1101;25002;-78
2021/05/26 09:51:42;;;;;;;3.38;0.93;;;;;;;20.93;29.10;96907.09;127659;1101;26832;-78
2021/05/26 09:54:18;;;;;;;2.20;0.70;;;;;;;20.18;31.97;96920.79;127709;1101;25166;-78
2021/05/26 09:56:49;;;;;;;4.10;0.70;;;;;;;19.26;31.29;96907.44;127720;1100;24402;-78
2021/05/26 09:59:21;;;;;;;2.03;0.75;;;;;;;18.72;32.93;96909.97;127520;1097;25920;-78
2021/05/26 10:01:54;;;;;;;2.78;0.80;;;;;;;18.68;33.59;96909.02;127504;1100;33923;-77
2021/05/26 10:04:25;;;;;;;2.15;0.60;;;;;;;18.73;34.15;96898.12;127550;1101;24347;-78
2021/05/26 10:06:56;;;;;;;2.78;0.88;;;;;;;18.05;32.16;96891.84;127545;1100;22915;-78
2021/05/26 10:09:26;;;;;;;0.73;0.43;;;;;;;17.58;33.19;96899.73;127543;1094;24905;-78
2021/05/26 10:11:58;;;;;;;1.38;0.68;;;;;;;17.41;33.42;96900.52;127534;1100;22757;-77
2021/05/26 10:14:31;;;;;;;1.53;0.50;;;;;;;17.54;34.55;96892.65;127496;1100;33273;-77
2021/05/26 10:17:03;;;;;;;3.25;0.88;;;;;;;17.52;34.70;96895.65;127399;1101;22794;-78
2021/05/26 10:19:33;;;;;;;1.80;0.90;;;;;;;17.70;35.22;96891.09;127501;1101;22782;-79
2021/05/26 10:22:03;;;;;;;3.50;0.90;;;;;;;17.80;33.03;96886.20;127502;1101;23174;-77
2021/05/26 10:24:33;;;;;;;4.03;0.98;;;;;;;17.75;33.00;96883.69;127537;1100;25041;-78
2021/05/26 10:27:06;;;;;;;1.95;0.90;;;;;;;17.71;32.49;96885.41;127538;1100;24489;-77
2021/05/26 10:29:46;;;;;;;1.05;0.50;;;;;;;17.69;32.29;96873.42;127571;1101;23604;-78
2021/05/26 10:32:32;;;;;;;1.20;0.65;;;;;;;17.71;32.44;96866.64;127514;1100;24075;-78
2021/05/26 10:35:06;;;;;;;2.70;0.73;;;;;;;17.70;33.45;96869.64;127602;1101;24537;-78
2021/05/26 10:37:42;;;;;;;1.30;0.70;;;;;;;17.83;34.94;96854.48;127553;1101;24399;-77
2021/05/26 10:40:40;;;;;;;2.70;0.78;;;;;;;17.86;35.32;96861.88;127611;1100;22750;-77
2021/05/26 10:43:35;;;;;;;2.13;0.95;;;;;;;17.90;34.51;96852.11;127581;1101;34174;-77
2021/05/26 10:46:07;;;;;;;0.88;0.50;;;;;;;17.74;34.20;96860.66;127731;1096;23479;-77
2021/05/26 10:49:19;;;;;;;2.60;0.85;;;;;;;17.70;34.64;96857.02;127539;1100;25138;-77
2021/05/26 10:52:07;;;;;;;2.50;0.70;;;;;;;17.78;33.47;96850.87;127677;1096;26216;-78
2021/05/26 10:55:04;;;;;;;3.28;0.70;;;;;;;17.72;34.76;96854.02;127637;1101;22823;-78
2021/05/26 10:58:14;;;;;;;3.68;2.05;;;;;;;17.75;34.64;96848.83;127581;1101;22777;-77
2021/05/26 11:00:45;;;;;;;3.15;1.23;;;;;;;17.77;33.90;96843.14;127512;1096;26250;-77
2021/05/26 11:03:34;;;;;;;6.35;3.53;;;;;;;17.79;36.60;96841.72;127612;1101;22761;-77
2021/05/26 11:06:06;;;;;;;4.33;2.43;;;;;;;17.78;35.24;96848.19;127508;1101;24817;-77
2021/05/26 11:08:44;;;;;;;5.20;1.60;;;;;;;17.68;35.60;96845.83;127558;1101;22777;-77
2021/05/26 11:11:42;;;;;;;2.65;1.00;;;;;;;17.75;34.74;96840.00;127549;1096;26341;-78
2021/05/26 11:14:35;;;;;;;2.88;1.53;;;;;;;17.66;36.01;96848.02;127670;1101;22780;-78
2021/05/26 11:17:27;;;;;;;3.80;0.83;;;;;;;17.67;35.76;96833.50;127512;1101;25311;-78
2021/05/26 11:20:18;;;;;;;2.63;1.73;;;;;;;17.62;36.05;96836.36;127552;1101;24164;-78
2021/05/26 11:22:49;;;;;;;4.98;1.05;;;;;;;17.76;36.20;96831.63;127551;1100;23459;-78
2021/05/26 11:25:19;;;;;;;1.40;0.95;;;;;;;17.84;35.86;96826.55;127560;1101;22833;-78
2021/05/26 11:27:57;;;;;;;6.73;2.48;;;;;;;17.74;37.70;96820.44;127598;1101;22992;-78
2021/05/26 11:30:27;;;;;;;2.45;0.90;;;;;;;17.75;37.42;96832.73;127551;1101;23221;-77
2021/05/26 11:33:08;;;;;;;1.40;0.65;;;;;;;18.03;37.84;96829.67;127573;1101;22856;-77
2021/05/26 11:35:49;;;;;;;2.90;0.93;;;;;;;18.01;36.13;96824.60;127640;1101;22776;-77
2021/05/26 11:38:26;;;;;;;4.23;1.25;;;;;;;17.83;34.76;96822.30;127529;1101;23731;-77
2021/05/26 11:40:58;;;;;;;2.88;0.98;;;;;;;17.55;36.34;96827.98;127518;1101;23851;-77
2021/05/26 11:43:33;;;;;;;2.40;0.80;;;;;;;17.65;36.93;96827.67;127547;1100;23748;-77
2021/05/26 11:46:07;;;;;;;1.63;0.90;;;;;;;17.78;35.80;96815.22;127529;1101;22843;-77
2021/05/26 11:48:38;;;;;;;2.20;0.68;;;;;;;17.95;37.90;96803.66;127524;1101;24371;-78
2021/05/26 11:51:08;;;;;;;2.28;1.08;;;;;;;18.16;37.01;96809.09;127620;1101;24521;-78
2021/05/26 11:53:37;;;;;;;1.58;0.70;;;;;;;18.28;34.54;96803.83;127664;1097;23458;-78
2021/05/26 11:56:08;;;;;;;2.08;0.73;;;;;;;18.18;35.89;96814.95;127595;1101;25098;-78